createdAt,value
2018-07-01T00:01:42.988Z,46.14
2018-07-01T00:04:11.808Z,46.45
2018-07-01T00:06:40.587Z,46.60
2018-07-01T00:09:09.626Z,47.30
2018-07-01T00:11:38.407Z,47.75
2018-07-01T00:14:07.251Z,47.38
2018-07-01T00:16:36.025Z,47.87
2018-07-01T00:19:05.276Z,47.96
2018-07-01T00:21:34.161Z,47.50
2018-07-01T00:24:02.987Z,48.19
2018-07-01T00:26:31.800Z,48.66
2018-07-01T00:29:00.575Z,48.72
2018-07-01T00:31:29.218Z,49.11
2018-07-01T00:33:58.188Z,49.26
2018-07-01T00:36:27.029Z,49.53
2018-07-01T00:38:55.770Z,49.40
2018-07-01T00:41:24.588Z,49.84
2018-07-01T00:43:53.335Z,49.74
2018-07-01T00:46:22.203Z,49.57
2018-07-01T00:48:50.957Z,50.14
2018-07-01T00:51:19.645Z,49.87
2018-07-01T00:53:48.414Z,49.43
2018-07-01T00:56:17.288Z,49.55
2018-07-01T00:58:45.943Z,49.95
2018-07-01T01:01:14.623Z,49.98
2018-07-01T01:03:43.409Z,50.24
2018-07-01T01:06:12.203Z,50.47
2018-07-01T01:08:41.327Z,51.55
2018-07-01T01:11:10.114Z,51.94
2018-07-01T01:13:38.910Z,51.40
2018-07-01T01:16:07.883Z,52.14
2018-07-01T01:18:36.495Z,51.20
2018-07-01T01:21:05.870Z,51.27
2018-07-01T01:23:34.796Z,51.62
2018-07-01T01:26:03.599Z,52.58
2018-07-01T01:28:32.462Z,52.05
2018-07-01T01:31:01.251Z,51.85
2018-07-01T01:33:30.142Z,51.79
2018-07-01T01:35:59.141Z,52.40
2018-07-01T01:38:30.146Z,52.13
2018-07-01T01:41:03.513Z,52.09
2018-07-01T01:44:39.656Z,52.84
2018-07-01T01:47:17.019Z,52.33
2018-07-01T01:49:54.560Z,52.47
2018-07-01T01:52:27.899Z,53.51
2018-07-01T01:55:01.872Z,53.00
2018-07-01T01:57:51.827Z,53.59
2018-07-01T02:00:27.312Z,54.18
2018-07-01T02:05:08.652Z,55.25
2018-07-01T02:07:44.452Z,55.13
2018-07-01T02:10:13.324Z,54.69
2018-07-01T02:12:42.187Z,55.08
2018-07-01T02:15:14.907Z,54.48
2018-07-01T02:17:46.067Z,54.68
2018-07-01T02:20:16.235Z,54.58
2018-07-01T02:22:54.167Z,54.03
2018-07-01T02:25:25.791Z,54.92
2018-07-01T02:27:54.687Z,55.15
2018-07-01T02:30:23.580Z,55.95
2018-07-01T02:32:52.170Z,56.55
2018-07-01T02:35:20.837Z,54.81
2018-07-01T02:37:49.573Z,55.63
2018-07-01T02:40:18.522Z,55.86
2018-07-01T02:42:47.302Z,55.09
2018-07-01T02:45:16.147Z,55.76
2018-07-01T02:47:44.950Z,55.52
2018-07-01T02:50:13.782Z,55.47
2018-07-01T02:52:42.631Z,54.98
2018-07-01T02:55:11.508Z,56.17
2018-07-01T02:57:40.315Z,55.38
2018-07-01T03:00:09.116Z,55.74
2018-07-01T03:02:37.976Z,55.82
2018-07-01T03:05:06.891Z,55.44
2018-07-01T03:07:35.708Z,55.54
2018-07-01T03:10:04.565Z,55.11
2018-07-01T03:12:33.374Z,55.50
2018-07-01T03:15:02.142Z,56.54
2018-07-01T03:17:31.417Z,56.67
2018-07-01T03:20:00.228Z,56.61
2018-07-01T03:22:29.106Z,56.82
2018-07-01T03:24:57.996Z,56.01
2018-07-01T03:27:26.850Z,56.01
2018-07-01T03:29:55.674Z,55.84
2018-07-01T03:32:24.504Z,57.05
2018-07-01T03:34:53.336Z,56.67
2018-07-01T03:37:22.172Z,56.11
2018-07-01T03:39:50.912Z,56.40
2018-07-01T03:42:19.732Z,56.74
2018-07-01T03:44:48.523Z,56.57
2018-07-01T03:47:17.271Z,56.10
2018-07-01T03:49:46.065Z,53.17
2018-07-01T03:52:14.848Z,51.18
2018-07-01T03:54:43.764Z,49.32
2018-07-01T03:57:12.354Z,48.05
2018-07-01T03:59:40.984Z,47.78
2018-07-01T04:02:09.778Z,47.52
2018-07-01T04:04:38.598Z,47.53
2018-07-01T04:07:07.445Z,49.30
2018-07-01T04:09:36.239Z,51.04
2018-07-01T04:12:05.019Z,52.06
2018-07-01T04:14:33.848Z,52.81
2018-07-01T04:17:02.612Z,52.56
2018-07-01T04:19:39.092Z,51.60
2018-07-01T04:22:08.816Z,49.85
2018-07-01T04:24:38.010Z,48.62
2018-07-01T04:27:06.863Z,47.35
2018-07-01T04:29:36.156Z,45.69
2018-07-01T04:32:05.151Z,45.35
2018-07-01T04:34:33.891Z,45.09
2018-07-01T04:37:02.726Z,45.50
2018-07-01T04:39:31.537Z,45.18
2018-07-01T04:42:00.220Z,44.97
2018-07-01T04:44:28.997Z,44.05
2018-07-01T04:46:57.804Z,43.46
2018-07-01T04:49:26.566Z,43.88
2018-07-01T04:51:55.449Z,45.16
2018-07-01T04:54:24.665Z,45.37
2018-07-01T04:56:53.459Z,43.42
2018-07-01T04:59:22.223Z,43.46
2018-07-01T05:01:50.924Z,45.64
2018-07-01T05:04:19.681Z,42.78
2018-07-01T05:06:48.558Z,44.12
2018-07-01T05:09:17.331Z,42.92
2018-07-01T05:11:46.136Z,42.11
2018-07-01T05:14:15.025Z,42.86
2018-07-01T05:16:43.863Z,43.83
2018-07-01T05:19:12.735Z,44.33
2018-07-01T05:21:41.583Z,44.74
2018-07-01T05:24:10.349Z,41.91
2018-07-01T05:26:39.172Z,40.92
2018-07-01T05:29:08.151Z,40.95
2018-07-01T05:31:37.235Z,42.73
2018-07-01T05:34:07.883Z,43.44
2018-07-01T05:36:36.699Z,42.54
2018-07-01T05:39:09.780Z,46.32
2018-07-01T05:41:38.426Z,43.32
2018-07-01T05:44:07.371Z,46.13
2018-07-01T05:46:36.424Z,43.16
2018-07-01T05:49:05.296Z,43.13
2018-07-01T05:51:33.905Z,42.30
2018-07-01T05:54:02.791Z,42.58
2018-07-01T05:56:31.584Z,41.99
2018-07-01T05:59:00.435Z,43.65
2018-07-01T06:01:29.323Z,40.70
2018-07-01T06:03:58.144Z,41.71
2018-07-01T06:06:26.957Z,42.13
2018-07-01T06:08:56.185Z,41.45
2018-07-01T06:11:24.979Z,41.18
2018-07-01T06:13:54.115Z,38.87
2018-07-01T06:16:22.913Z,39.79
2018-07-01T06:18:51.743Z,38.66
2018-07-01T06:21:20.516Z,38.17
2018-07-01T06:23:49.293Z,38.46
2018-07-01T06:26:18.138Z,39.50
2018-07-01T06:28:46.897Z,38.31
2018-07-01T06:31:15.756Z,38.64
2018-07-01T06:33:44.511Z,38.38
2018-07-01T06:36:13.356Z,36.85
2018-07-01T06:38:42.146Z,36.65
2018-07-01T06:41:11.006Z,38.43
2018-07-01T06:43:39.840Z,38.55
2018-07-01T06:46:08.688Z,37.10
2018-07-01T06:48:37.476Z,38.50
2018-07-01T06:51:06.631Z,36.62
2018-07-01T06:53:35.735Z,37.68
2018-07-01T06:56:04.892Z,36.92
2018-07-01T06:58:33.856Z,34.15
2018-07-01T07:01:02.561Z,34.91
2018-07-01T07:03:31.323Z,36.85
2018-07-01T07:06:00.183Z,36.15
2018-07-01T07:08:28.904Z,34.71
2018-07-01T07:10:57.543Z,34.60
2018-07-01T07:13:26.401Z,36.28
2018-07-01T07:15:55.586Z,33.30
2018-07-01T07:18:24.385Z,32.38
2018-07-01T07:20:53.220Z,33.58
2018-07-01T07:23:22.083Z,32.41
2018-07-01T07:25:50.849Z,34.13
2018-07-01T07:28:19.746Z,33.67
2018-07-01T07:30:48.401Z,31.85
2018-07-01T07:33:19.818Z,35.02
2018-07-01T07:35:48.964Z,31.06
2018-07-01T07:38:17.775Z,34.82
2018-07-01T07:40:46.556Z,35.15
2018-07-01T07:43:16.604Z,34.82
2018-07-01T07:45:51.452Z,33.75
2018-07-01T07:48:20.289Z,31.43
2018-07-01T07:50:49.104Z,32.09
2018-07-01T07:53:17.936Z,32.43
2018-07-01T07:55:46.823Z,32.77
2018-07-01T07:58:15.690Z,30.99
2018-07-01T08:00:44.500Z,30.41
2018-07-01T08:03:13.316Z,30.50
2018-07-01T08:05:42.184Z,30.23
2018-07-01T08:08:11.178Z,29.85
2018-07-01T08:10:39.936Z,29.53
2018-07-01T08:13:08.789Z,28.38
2018-07-01T08:15:37.552Z,28.82
2018-07-01T08:18:06.542Z,29.27
2018-07-01T08:20:35.395Z,30.20
2018-07-01T08:23:04.208Z,30.59
2018-07-01T08:25:33.095Z,32.02
2018-07-01T08:28:01.884Z,30.81
2018-07-01T08:30:30.818Z,29.93
2018-07-01T08:32:59.694Z,27.52
2018-07-01T08:35:28.493Z,28.77
2018-07-01T08:37:57.298Z,27.97
2018-07-01T08:40:26.240Z,28.26
2018-07-01T08:42:55.006Z,28.52
2018-07-01T08:45:23.866Z,28.33
2018-07-01T08:47:52.644Z,28.23
2018-07-01T08:50:21.458Z,27.19
2018-07-01T08:52:50.299Z,25.67
2018-07-01T08:55:19.070Z,25.31
2018-07-01T08:57:47.989Z,24.10
2018-07-01T09:00:16.822Z,24.97
2018-07-01T09:02:45.655Z,25.19
2018-07-01T09:05:14.474Z,24.97
2018-07-01T09:07:43.256Z,26.06
2018-07-01T09:10:12.249Z,25.03
2018-07-01T09:12:41.035Z,24.10
2018-07-01T09:15:09.864Z,25.35
2018-07-01T09:17:38.673Z,22.85
2018-07-01T09:20:07.294Z,24.77
2018-07-01T09:22:36.172Z,24.46
2018-07-01T09:25:05.517Z,23.37
2018-07-01T09:27:34.322Z,24.29
2018-07-01T09:30:03.376Z,25.50
2018-07-01T09:32:32.233Z,26.32
2018-07-01T09:35:01.047Z,25.57
2018-07-01T09:37:29.871Z,24.96
2018-07-01T09:39:58.883Z,25.37
2018-07-01T09:42:27.689Z,23.46
2018-07-01T09:44:56.297Z,23.41
2018-07-01T09:47:25.177Z,24.94
2018-07-01T09:49:53.960Z,25.75
2018-07-01T09:52:22.649Z,24.68
2018-07-01T09:54:51.431Z,24.98
2018-07-01T09:57:20.091Z,25.29
2018-07-01T09:59:49.279Z,25.19
2018-07-01T10:02:18.092Z,25.52
2018-07-01T10:04:46.907Z,25.85
2018-07-01T10:07:15.685Z,26.38
2018-07-01T10:09:44.475Z,24.59
2018-07-01T10:12:13.425Z,25.26
2018-07-01T10:14:42.231Z,25.83
2018-07-01T10:17:11.043Z,24.69
2018-07-01T10:19:39.875Z,26.32
2018-07-01T10:22:08.668Z,25.47
2018-07-01T10:24:37.401Z,25.24
2018-07-01T10:27:06.446Z,25.59
2018-07-01T10:29:35.251Z,25.86
2018-07-01T10:32:04.061Z,24.90
2018-07-01T10:34:32.883Z,24.17
2018-07-01T10:37:01.792Z,23.72
2018-07-01T10:39:30.438Z,24.09
2018-07-01T10:41:59.251Z,24.10
2018-07-01T10:44:27.893Z,23.79
2018-07-01T10:46:56.733Z,24.20
2018-07-01T10:49:25.614Z,23.38
2018-07-01T10:51:54.497Z,23.54
2018-07-01T10:54:23.271Z,23.02
2018-07-01T10:56:52.098Z,24.06
2018-07-01T10:59:20.739Z,23.52
2018-07-01T11:01:49.652Z,22.90
2018-07-01T11:04:18.438Z,23.85
2018-07-01T11:06:47.290Z,23.55
2018-07-01T11:09:16.081Z,23.54
2018-07-01T11:11:44.910Z,23.71
2018-07-01T11:14:13.670Z,22.85
2018-07-01T11:16:42.527Z,23.26
2018-07-01T11:19:11.327Z,22.91
2018-07-01T11:21:40.149Z,23.67
2018-07-01T11:24:08.940Z,23.31
2018-07-01T11:26:37.875Z,23.99
2018-07-01T11:29:06.635Z,23.46
2018-07-01T11:31:35.443Z,23.48
2018-07-01T11:34:04.448Z,23.00
2018-07-01T11:36:33.347Z,23.72
2018-07-01T11:39:02.238Z,23.18
2018-07-01T11:41:30.906Z,22.82
2018-07-01T11:43:59.678Z,23.27
2018-07-01T11:46:28.520Z,23.56
2018-07-01T11:48:57.371Z,23.14
2018-07-01T11:51:26.221Z,22.90
2018-07-01T11:53:55.056Z,23.15
2018-07-01T11:56:23.829Z,23.35
2018-07-01T11:58:52.707Z,22.59
2018-07-01T12:01:21.519Z,23.34
2018-07-01T12:03:50.389Z,22.77
2018-07-01T12:06:19.283Z,23.21
2018-07-01T12:08:49.092Z,23.17
2018-07-01T12:11:17.921Z,22.75
2018-07-01T12:13:46.751Z,22.99
2018-07-01T12:16:15.579Z,23.08
2018-07-01T12:18:44.431Z,23.02
2018-07-01T12:21:13.496Z,22.76
2018-07-01T12:23:42.436Z,23.34
2018-07-01T12:26:11.152Z,23.39
2018-07-01T12:28:40.072Z,22.94
2018-07-01T12:31:08.896Z,22.78
2018-07-01T12:33:37.699Z,22.60
2018-07-01T12:36:06.528Z,22.66
2018-07-01T12:38:35.367Z,23.74
2018-07-01T12:41:04.307Z,22.16
2018-07-01T12:43:33.092Z,22.50
2018-07-01T12:46:07.997Z,23.04
2018-07-01T12:48:36.814Z,22.32
2018-07-01T12:51:05.971Z,22.39
2018-07-01T12:53:34.964Z,22.96
2018-07-01T12:56:03.929Z,22.06
2018-07-01T12:58:32.556Z,22.58
2018-07-01T13:01:01.419Z,23.21
2018-07-01T13:03:30.293Z,23.42
2018-07-01T13:05:59.140Z,22.35
2018-07-01T13:08:27.991Z,22.55
2018-07-01T13:10:56.859Z,22.00
2018-07-01T13:13:25.633Z,22.35
2018-07-01T13:15:54.573Z,23.02
2018-07-01T13:18:23.356Z,22.49
2018-07-01T13:20:52.183Z,22.89
2018-07-01T13:23:21.010Z,23.02
2018-07-01T13:25:49.822Z,23.32
2018-07-01T13:28:19.385Z,22.33
2018-07-01T13:30:48.213Z,22.28
2018-07-01T13:33:16.866Z,22.75
2018-07-01T13:35:45.732Z,22.57
2018-07-01T13:38:14.552Z,22.95
2018-07-01T13:40:43.410Z,22.61
2018-07-01T13:43:12.245Z,22.05
2018-07-01T13:45:47.294Z,21.48
2018-07-01T13:48:16.130Z,21.17
2018-07-01T13:50:44.822Z,22.16
2018-07-01T13:53:13.695Z,21.79
2018-07-01T13:55:42.589Z,22.21
2018-07-01T13:58:11.506Z,22.49
2018-07-01T14:00:40.287Z,22.56
2018-07-01T14:03:09.223Z,22.35
2018-07-01T14:05:38.019Z,21.43
2018-07-01T14:08:06.924Z,22.10
2018-07-01T14:10:35.551Z,21.47
2018-07-01T14:13:04.604Z,21.31
2018-07-01T14:15:33.443Z,21.39
2018-07-01T14:18:02.317Z,22.66
2018-07-01T14:20:31.100Z,22.52
2018-07-01T14:22:59.932Z,22.31
2018-07-01T14:25:28.727Z,22.31
2018-07-01T14:27:57.619Z,23.33
2018-07-01T14:30:26.406Z,22.34
2018-07-01T14:32:55.260Z,22.68
2018-07-01T14:35:24.320Z,22.72
2018-07-01T14:37:52.935Z,22.82
2018-07-01T14:40:21.812Z,22.92
2018-07-01T14:42:50.579Z,22.46
2018-07-01T14:45:25.375Z,23.02
2018-07-01T14:47:54.160Z,22.58
2018-07-01T14:50:22.876Z,22.69
2018-07-01T14:52:51.640Z,22.62
2018-07-01T14:55:20.557Z,22.69
2018-07-01T14:57:49.358Z,22.25
2018-07-01T15:00:18.184Z,22.16
2018-07-01T15:02:47.056Z,22.27
2018-07-01T15:05:15.883Z,21.94
2018-07-01T15:07:44.654Z,21.16
2018-07-01T15:10:13.463Z,21.78
2018-07-01T15:12:43.290Z,22.20
2018-07-01T15:15:12.227Z,22.21
2018-07-01T15:17:41.019Z,21.86
2018-07-01T15:20:09.697Z,21.31
2018-07-01T15:22:38.475Z,21.99
2018-07-01T15:25:07.340Z,21.46
2018-07-01T15:27:36.228Z,22.58
2018-07-01T15:30:07.574Z,22.58
2018-07-01T15:32:37.015Z,21.79
2018-07-01T15:35:05.938Z,22.01
2018-07-01T15:37:35.359Z,21.90
2018-07-01T15:40:05.309Z,21.94
2018-07-01T15:42:34.187Z,22.08
2018-07-01T15:45:03.136Z,22.71
2018-07-01T15:47:32.027Z,22.38
2018-07-01T15:50:00.823Z,23.14
2018-07-01T15:52:29.739Z,22.96
2018-07-01T15:54:58.564Z,23.90
2018-07-01T15:57:27.359Z,23.87
2018-07-01T15:59:56.155Z,23.13
2018-07-01T16:02:25.051Z,23.17
2018-07-01T16:04:53.861Z,23.23
2018-07-01T16:07:22.735Z,23.80
2018-07-01T16:09:51.506Z,23.64
2018-07-01T16:12:20.379Z,23.69
2018-07-01T16:14:49.191Z,23.71
2018-07-01T16:17:18.087Z,24.05
2018-07-01T16:19:47.247Z,23.90
2018-07-01T16:22:16.066Z,23.92
2018-07-01T16:24:51.433Z,24.50
2018-07-01T16:27:26.131Z,23.99
2018-07-01T16:29:54.904Z,24.02
2018-07-01T16:32:23.819Z,23.62
2018-07-01T16:34:52.572Z,24.27
2018-07-01T16:37:21.551Z,24.13
2018-07-01T16:39:50.325Z,24.12
2018-07-01T16:42:19.005Z,24.31
2018-07-01T16:44:47.861Z,24.65
2018-07-01T16:47:16.664Z,24.82
2018-07-01T16:49:45.507Z,24.84
2018-07-01T16:52:14.364Z,24.00
2018-07-01T16:54:43.243Z,24.04
2018-07-01T16:57:12.056Z,24.43
2018-07-01T16:59:40.749Z,25.25
2018-07-01T17:02:10.142Z,24.52
2018-07-01T17:04:39.485Z,24.68
2018-07-01T17:07:08.328Z,24.52
2018-07-01T17:09:37.126Z,25.26
2018-07-01T17:12:05.924Z,25.68
2018-07-01T17:14:34.851Z,24.98
2018-07-01T17:17:03.738Z,25.17
2018-07-01T17:19:32.572Z,25.39
2018-07-01T17:22:01.461Z,25.99
2018-07-01T17:24:30.299Z,26.21
2018-07-01T17:26:59.115Z,25.58
2018-07-01T17:29:27.915Z,25.10
2018-07-01T17:32:02.276Z,25.44
2018-07-01T17:34:31.150Z,25.58
2018-07-01T17:37:00.095Z,25.35
2018-07-01T17:39:28.866Z,25.55
2018-07-01T17:41:57.952Z,25.80
2018-07-01T17:44:26.704Z,25.67
2018-07-01T17:46:55.556Z,25.45
2018-07-01T17:49:24.411Z,26.13
2018-07-01T17:51:53.549Z,25.54
2018-07-01T17:54:22.380Z,25.97
2018-07-01T17:56:51.475Z,25.91
2018-07-01T17:59:20.241Z,26.08
2018-07-01T18:01:49.193Z,26.20
2018-07-01T18:04:17.809Z,26.74
2018-07-01T18:06:46.632Z,26.29
2018-07-01T18:09:15.447Z,26.04
2018-07-01T18:11:44.105Z,26.60
2018-07-01T18:14:12.927Z,26.62
2018-07-01T18:16:41.590Z,26.88
2018-07-01T18:19:10.374Z,27.37
2018-07-01T18:21:40.297Z,27.29
2018-07-01T18:24:35.139Z,27.95
2018-07-01T18:26:37.322Z,27.48
2018-07-01T18:29:13.251Z,28.02
2018-07-01T18:31:35.346Z,28.42
2018-07-01T18:34:04.331Z,28.96
2018-07-01T18:36:33.308Z,28.86
2018-07-01T18:39:02.253Z,29.00
2018-07-01T18:41:31.024Z,29.51
2018-07-01T18:43:59.908Z,31.38
2018-07-01T18:46:28.776Z,31.81
2018-07-01T18:48:57.620Z,31.71
2018-07-01T18:51:26.503Z,32.47
2018-07-01T18:53:56.189Z,33.04
2018-07-01T18:56:24.980Z,31.71
2018-07-01T18:58:53.892Z,31.52
2018-07-01T19:01:23.004Z,31.75
2018-07-01T19:03:51.846Z,31.67
2018-07-01T19:06:20.603Z,32.27
2018-07-01T19:08:49.403Z,31.66
2018-07-01T19:11:18.192Z,31.87
2018-07-01T19:13:47.055Z,32.21
2018-07-01T19:16:15.880Z,32.11
2018-07-01T19:18:44.712Z,32.20
2018-07-01T19:21:13.544Z,32.60
2018-07-01T19:23:42.409Z,32.41
2018-07-01T19:26:11.188Z,32.69
2018-07-01T19:28:40.069Z,33.03
2018-07-01T19:31:08.876Z,33.10
2018-07-01T19:33:37.915Z,33.01
2018-07-01T19:36:06.910Z,33.47
2018-07-01T19:38:35.678Z,33.71
2018-07-01T19:41:04.608Z,33.78
2018-07-01T19:43:33.570Z,33.72
2018-07-01T19:46:02.295Z,34.23
2018-07-01T19:48:31.292Z,33.91
2018-07-01T19:51:00.124Z,34.74
2018-07-01T19:53:28.961Z,34.58
2018-07-01T19:55:57.803Z,34.61
2018-07-01T19:58:26.572Z,34.61
2018-07-01T20:00:55.383Z,34.90
2018-07-01T20:03:24.261Z,35.17
2018-07-01T20:05:53.099Z,34.90
2018-07-01T20:08:22.089Z,35.06
2018-07-01T20:10:51.120Z,36.12
2018-07-01T20:13:19.975Z,35.49
2018-07-01T20:15:48.784Z,35.84
2018-07-01T20:18:17.596Z,35.95
2018-07-01T20:20:46.437Z,36.18
2018-07-01T20:23:18.311Z,36.02
2018-07-01T20:25:47.107Z,36.64
2018-07-01T20:28:15.891Z,36.32
2018-07-01T20:30:44.754Z,36.30
2018-07-01T20:33:13.500Z,36.37
2018-07-01T20:35:42.244Z,37.05
2018-07-01T20:38:10.877Z,36.87
2018-07-01T20:40:39.628Z,37.28
2018-07-01T20:43:08.563Z,37.48
2018-07-01T20:45:43.393Z,37.37
2018-07-01T20:48:12.190Z,37.58
2018-07-01T20:50:40.960Z,37.81
2018-07-01T20:53:09.847Z,38.20
2018-07-01T20:55:38.664Z,38.24
2018-07-01T20:58:07.513Z,38.13
2018-07-01T21:00:36.257Z,38.75
2018-07-01T21:03:04.975Z,38.77
2018-07-01T21:05:34.063Z,39.03
2018-07-01T21:08:02.870Z,38.91
2018-07-01T21:10:31.615Z,39.04
2018-07-01T21:13:00.427Z,39.62
2018-07-01T21:15:29.019Z,39.50
2018-07-01T21:17:57.897Z,40.08
2018-07-01T21:20:26.698Z,39.60
2018-07-01T21:22:55.362Z,39.63
2018-07-01T21:25:24.102Z,39.87
2018-07-01T21:27:52.865Z,40.14
2018-07-01T21:30:21.754Z,40.64
2018-07-01T21:32:50.502Z,40.81
2018-07-01T21:35:19.327Z,40.47
2018-07-01T21:37:48.095Z,40.54
2018-07-01T21:40:16.751Z,41.20
2018-07-01T21:42:45.927Z,41.24
2018-07-01T21:45:20.812Z,41.25
2018-07-01T21:47:49.477Z,41.46
2018-07-01T21:50:18.397Z,41.58
2018-07-01T21:52:47.233Z,42.00
2018-07-01T21:55:16.095Z,42.47
2018-07-01T21:57:44.864Z,42.31
2018-07-01T22:00:13.783Z,42.59
2018-07-01T22:02:42.421Z,42.83
2018-07-01T22:05:11.323Z,42.55
2018-07-01T22:07:40.096Z,42.73
2018-07-01T22:10:08.925Z,42.99
2018-07-01T22:12:49.326Z,42.90
2018-07-01T22:15:29.402Z,42.98
2018-07-01T22:17:58.191Z,43.12
2018-07-01T22:20:27.016Z,43.35
2018-07-01T22:22:55.791Z,43.38
2018-07-01T22:25:24.707Z,43.22
2018-07-01T22:27:53.314Z,42.98
2018-07-01T22:30:22.154Z,43.37
2018-07-01T22:32:51.210Z,43.14
2018-07-01T22:35:20.123Z,43.31
2018-07-01T22:37:49.056Z,43.14
2018-07-01T22:40:17.645Z,43.61
2018-07-01T22:42:46.458Z,43.72
2018-07-01T22:45:21.322Z,43.41
2018-07-01T22:47:50.198Z,43.32
2018-07-01T22:50:18.968Z,44.07
2018-07-01T22:52:47.792Z,43.61
2018-07-01T22:55:16.572Z,43.73
2018-07-01T22:57:45.379Z,43.88
2018-07-01T23:00:14.390Z,44.46
2018-07-01T23:03:03.410Z,45.07
2018-07-01T23:05:32.205Z,44.97
2018-07-01T23:08:01.034Z,44.94
2018-07-01T23:10:30.594Z,44.37
2018-07-01T23:12:59.896Z,45.23
2018-07-01T23:15:28.831Z,45.05
2018-07-01T23:17:57.644Z,45.37
2018-07-01T23:20:26.426Z,45.03
2018-07-01T23:22:55.358Z,45.63
2018-07-01T23:25:24.224Z,45.56
2018-07-01T23:27:53.037Z,45.42
2018-07-01T23:30:21.967Z,45.21
2018-07-01T23:32:50.988Z,45.59
2018-07-01T23:35:20.004Z,45.44
2018-07-01T23:37:48.791Z,46.15
2018-07-01T23:40:17.672Z,45.91
2018-07-01T23:42:46.287Z,45.92
2018-07-01T23:45:21.248Z,46.45
2018-07-01T23:47:50.095Z,46.63
2018-07-01T23:50:18.920Z,46.30
2018-07-01T23:52:47.711Z,46.13
2018-07-01T23:55:16.555Z,47.42
2018-07-01T23:57:45.169Z,47.05
